sensor_id;sensor_type;location;lat;lon;timestamp;temperature;humidity
39493;DHT22;25176;51.060;3.720;2023-02-28T00:00:07;4.20;83.40
39493;DHT22;25176;51.060;3.720;2023-02-28T00:02:37;4.20;83.40
39493;DHT22;25176;51.060;3.720;2023-02-28T00:05:03;4.10;83.70
39493;DHT22;25176;51.060;3.720;2023-02-28T00:38:32;4.00;85.60
39493;DHT22;25176;51.060;3.720;2023-02-28T00:40:58;3.90;86.00
39493;DHT22;25176;51.060;3.720;2023-02-28T00:43:29;3.90;85.80
39493;DHT22;25176;51.060;3.720;2023-02-28T00:45:55;3.90;85.90
39493;DHT22;25176;51.060;3.720;2023-02-28T00:48:20;3.90;86.10
39493;DHT22;25176;51.060;3.720;2023-02-28T00:50:48;3.80;86.20
39493;DHT22;25176;51.060;3.720;2023-02-28T00:53:13;3.90;87.00
39493;DHT22;25176;51.060;3.720;2023-02-28T00:55:39;3.90;86.40
39493;DHT22;25176;51.060;3.720;2023-02-28T00:58:04;3.90;86.50
39493;DHT22;25176;51.060;3.720;2023-02-28T01:00:30;3.90;86.80
39493;DHT22;25176;51.060;3.720;2023-02-28T01:02:55;3.90;86.80
39493;DHT22;25176;51.060;3.720;2023-02-28T01:05:21;3.90;87.10
39493;DHT22;25176;51.060;3.720;2023-02-28T01:07:48;3.90;87.00
39493;DHT22;25176;51.060;3.720;2023-02-28T01:10:14;3.80;87.20
39493;DHT22;25176;51.060;3.720;2023-02-28T01:12:39;3.80;87.70
39493;DHT22;25176;51.060;3.720;2023-02-28T01:15:05;3.80;88.10
39493;DHT22;25176;51.060;3.720;2023-02-28T01:17:30;3.70;88.20
39493;DHT22;25176;51.060;3.720;2023-02-28T01:19:56;3.60;88.80
39493;DHT22;25176;51.060;3.720;2023-02-28T01:22:21;3.60;88.80
39493;DHT22;25176;51.060;3.720;2023-02-28T01:24:47;3.60;89.00
39493;DHT22;25176;51.060;3.720;2023-02-28T01:27:13;3.70;89.00
39493;DHT22;25176;51.060;3.720;2023-02-28T01:29:38;3.70;89.00
39493;DHT22;25176;51.060;3.720;2023-02-28T01:32:04;3.70;89.40
39493;DHT22;25176;51.060;3.720;2023-02-28T01:34:29;3.70;89.20
39493;DHT22;25176;51.060;3.720;2023-02-28T01:36:55;3.60;89.40
39493;DHT22;25176;51.060;3.720;2023-02-28T01:39:20;3.70;89.20
39493;DHT22;25176;51.060;3.720;2023-02-28T01:41:46;3.70;89.20
39493;DHT22;25176;51.060;3.720;2023-02-28T01:46:56;3.80;89.10
39493;DHT22;25176;51.060;3.720;2023-02-28T01:49:22;3.80;89.60
39493;DHT22;25176;51.060;3.720;2023-02-28T01:51:51;3.80;89.80
39493;DHT22;25176;51.060;3.720;2023-02-28T01:54:26;3.70;90.20
39493;DHT22;25176;51.060;3.720;2023-02-28T01:57:00;3.70;90.40
39493;DHT22;25176;51.060;3.720;2023-02-28T01:59:27;3.60;90.60
39493;DHT22;25176;51.060;3.720;2023-02-28T02:01:55;3.60;90.80
39493;DHT22;25176;51.060;3.720;2023-02-28T02:04:21;3.60;90.90
39493;DHT22;25176;51.060;3.720;2023-02-28T02:06:48;3.60;91.10
39493;DHT22;25176;51.060;3.720;2023-02-28T02:09:14;3.50;91.10
39493;DHT22;25176;51.060;3.720;2023-02-28T02:11:40;3.40;91.30
39493;DHT22;25176;51.060;3.720;2023-02-28T02:29:37;3.30;92.00
39493;DHT22;25176;51.060;3.720;2023-02-28T02:40:14;3.20;92.00
39493;DHT22;25176;51.060;3.720;2023-02-28T02:42:51;3.20;92.00
39493;DHT22;25176;51.060;3.720;2023-02-28T02:48:12;3.20;92.00
39493;DHT22;25176;51.060;3.720;2023-02-28T02:50:41;3.10;92.20
39493;DHT22;25176;51.060;3.720;2023-02-28T02:53:08;3.10;92.20
39493;DHT22;25176;51.060;3.720;2023-02-28T02:55:36;3.10;92.30
39493;DHT22;25176;51.060;3.720;2023-02-28T02:58:04;3.10;92.30
39493;DHT22;25176;51.060;3.720;2023-02-28T03:00:34;3.20;92.20
39493;DHT22;25176;51.060;3.720;2023-02-28T03:03:02;3.20;92.00
39493;DHT22;25176;51.060;3.720;2023-02-28T03:05:30;3.20;92.00
39493;DHT22;25176;51.060;3.720;2023-02-28T03:07:59;3.20;91.90
39493;DHT22;25176;51.060;3.720;2023-02-28T03:10:28;3.10;91.90
39493;DHT22;25176;51.060;3.720;2023-02-28T03:12:57;3.10;91.90
39493;DHT22;25176;51.060;3.720;2023-02-28T03:15:32;3.20;91.90
39493;DHT22;25176;51.060;3.720;2023-02-28T03:18:08;3.20;91.60
39493;DHT22;25176;51.060;3.720;2023-02-28T03:20:36;3.20;91.80
39493;DHT22;25176;51.060;3.720;2023-02-28T03:23:07;3.10;91.90
39493;DHT22;25176;51.060;3.720;2023-02-28T03:25:42;3.10;91.90
39493;DHT22;25176;51.060;3.720;2023-02-28T03:33:20;3.10;92.10
39493;DHT22;25176;51.060;3.720;2023-02-28T03:35:55;3.20;91.90
39493;DHT22;25176;51.060;3.720;2023-02-28T03:40:48;3.10;92.00
39493;DHT22;25176;51.060;3.720;2023-02-28T03:43:18;3.10;91.90
39493;DHT22;25176;51.060;3.720;2023-02-28T03:45:44;3.10;91.90
39493;DHT22;25176;51.060;3.720;2023-02-28T03:48:25;3.00;92.00
39493;DHT22;25176;51.060;3.720;2023-02-28T03:50:53;3.10;91.90
39493;DHT22;25176;51.060;3.720;2023-02-28T03:53:54;3.10;92.00
39493;DHT22;25176;51.060;3.720;2023-02-28T03:56:14;3.10;91.90
39493;DHT22;25176;51.060;3.720;2023-02-28T04:01:12;3.20;91.90
39493;DHT22;25176;51.060;3.720;2023-02-28T04:03:38;3.20;91.90
39493;DHT22;25176;51.060;3.720;2023-02-28T04:06:05;3.20;91.80
39493;DHT22;25176;51.060;3.720;2023-02-28T04:08:32;3.20;91.70
39493;DHT22;25176;51.060;3.720;2023-02-28T04:11:00;3.20;91.70
39493;DHT22;25176;51.060;3.720;2023-02-28T04:13:27;3.20;91.60
39493;DHT22;25176;51.060;3.720;2023-02-28T04:15:52;3.30;91.40
39493;DHT22;25176;51.060;3.720;2023-02-28T04:18:18;3.40;91.30
39493;DHT22;25176;51.060;3.720;2023-02-28T04:20:44;3.40;91.00
39493;DHT22;25176;51.060;3.720;2023-02-28T04:23:09;3.50;90.90
39493;DHT22;25176;51.060;3.720;2023-02-28T04:25:35;3.50;91.00
39493;DHT22;25176;51.060;3.720;2023-02-28T04:28:00;3.60;91.10
39493;DHT22;25176;51.060;3.720;2023-02-28T04:30:25;3.80;90.70
39493;DHT22;25176;51.060;3.720;2023-02-28T04:32:51;3.90;90.40
39493;DHT22;25176;51.060;3.720;2023-02-28T04:35:16;3.90;90.60
39493;DHT22;25176;51.060;3.720;2023-02-28T04:37:42;4.10;90.50
39493;DHT22;25176;51.060;3.720;2023-02-28T04:40:08;4.20;90.20
39493;DHT22;25176;51.060;3.720;2023-02-28T04:42:33;4.20;89.60
39493;DHT22;25176;51.060;3.720;2023-02-28T04:45:04;4.10;90.10
39493;DHT22;25176;51.060;3.720;2023-02-28T04:47:29;4.00;90.10
39493;DHT22;25176;51.060;3.720;2023-02-28T04:49:55;4.00;90.20
39493;DHT22;25176;51.060;3.720;2023-02-28T04:52:21;4.00;90.20
39493;DHT22;25176;51.060;3.720;2023-02-28T04:54:46;4.00;90.30
39493;DHT22;25176;51.060;3.720;2023-02-28T04:57:12;4.00;90.30
39493;DHT22;25176;51.060;3.720;2023-02-28T04:59:37;4.00;90.30
39493;DHT22;25176;51.060;3.720;2023-02-28T05:02:03;4.00;90.20
39493;DHT22;25176;51.060;3.720;2023-02-28T05:04:34;4.00;90.30
39493;DHT22;25176;51.060;3.720;2023-02-28T05:07:01;4.00;90.50
39493;DHT22;25176;51.060;3.720;2023-02-28T05:09:26;4.00;90.40
39493;DHT22;25176;51.060;3.720;2023-02-28T05:11:53;4.00;90.40
39493;DHT22;25176;51.060;3.720;2023-02-28T05:14:18;3.90;90.40
39493;DHT22;25176;51.060;3.720;2023-02-28T05:16:44;3.90;90.50
39493;DHT22;25176;51.060;3.720;2023-02-28T05:19:09;3.90;90.50
39493;DHT22;25176;51.060;3.720;2023-02-28T05:21:36;3.80;90.80
39493;DHT22;25176;51.060;3.720;2023-02-28T05:24:03;3.80;90.90
39493;DHT22;25176;51.060;3.720;2023-02-28T05:26:29;3.90;91.00
39493;DHT22;25176;51.060;3.720;2023-02-28T05:28:55;3.90;91.60
39493;DHT22;25176;51.060;3.720;2023-02-28T05:31:21;3.90;91.70
39493;DHT22;25176;51.060;3.720;2023-02-28T05:33:46;3.90;91.70
39493;DHT22;25176;51.060;3.720;2023-02-28T05:36:12;3.90;91.80
39493;DHT22;25176;51.060;3.720;2023-02-28T05:38:37;3.90;92.00
39493;DHT22;25176;51.060;3.720;2023-02-28T05:41:07;4.00;91.80
39493;DHT22;25176;51.060;3.720;2023-02-28T05:43:33;4.00;91.80
39493;DHT22;25176;51.060;3.720;2023-02-28T05:45:58;4.00;92.00
39493;DHT22;25176;51.060;3.720;2023-02-28T05:48:24;4.10;91.70
39493;DHT22;25176;51.060;3.720;2023-02-28T05:50:51;3.90;92.00
39493;DHT22;25176;51.060;3.720;2023-02-28T05:53:16;4.00;92.10
39493;DHT22;25176;51.060;3.720;2023-02-28T05:55:42;3.80;92.60
39493;DHT22;25176;51.060;3.720;2023-02-28T05:58:07;3.70;92.60
39493;DHT22;25176;51.060;3.720;2023-02-28T06:00:33;3.80;92.60
39493;DHT22;25176;51.060;3.720;2023-02-28T06:02:58;3.80;92.40
39493;DHT22;25176;51.060;3.720;2023-02-28T06:05:26;3.90;92.40
39493;DHT22;25176;51.060;3.720;2023-02-28T06:07:52;3.80;92.10
39493;DHT22;25176;51.060;3.720;2023-02-28T06:10:17;3.70;92.10
39493;DHT22;25176;51.060;3.720;2023-02-28T06:12:43;3.80;92.30
39493;DHT22;25176;51.060;3.720;2023-02-28T06:15:12;3.90;92.30
39493;DHT22;25176;51.060;3.720;2023-02-28T06:17:38;4.00;92.20
39493;DHT22;25176;51.060;3.720;2023-02-28T06:20:04;4.00;91.90
39493;DHT22;25176;51.060;3.720;2023-02-28T06:22:30;4.10;92.00
39493;DHT22;25176;51.060;3.720;2023-02-28T06:24:56;4.10;91.70
39493;DHT22;25176;51.060;3.720;2023-02-28T06:27:22;4.00;91.60
39493;DHT22;25176;51.060;3.720;2023-02-28T06:29:48;4.00;91.90
39493;DHT22;25176;51.060;3.720;2023-02-28T06:32:14;4.00;91.80
39493;DHT22;25176;51.060;3.720;2023-02-28T06:34:39;4.10;91.70
39493;DHT22;25176;51.060;3.720;2023-02-28T06:37:05;4.10;91.40
39493;DHT22;25176;51.060;3.720;2023-02-28T06:39:31;4.20;91.30
39493;DHT22;25176;51.060;3.720;2023-02-28T06:41:56;4.20;91.60
39493;DHT22;25176;51.060;3.720;2023-02-28T06:44:23;4.30;91.50
39493;DHT22;25176;51.060;3.720;2023-02-28T06:46:48;4.30;90.90
39493;DHT22;25176;51.060;3.720;2023-02-28T07:29:04;5.20;90.40
39493;DHT22;25176;51.060;3.720;2023-02-28T07:31:30;4.30;89.00
39493;DHT22;25176;51.060;3.720;2023-02-28T07:33:55;4.30;89.30
39493;DHT22;25176;51.060;3.720;2023-02-28T07:36:21;4.20;89.70
39493;DHT22;25176;51.060;3.720;2023-02-28T07:46:01;4.30;89.50
39493;DHT22;25176;51.060;3.720;2023-02-28T07:48:31;4.20;90.00
39493;DHT22;25176;51.060;3.720;2023-02-28T07:51:14;4.20;89.30
39493;DHT22;25176;51.060;3.720;2023-02-28T07:54:47;4.30;89.60
39493;DHT22;25176;51.060;3.720;2023-02-28T07:58:27;4.20;89.50
39493;DHT22;25176;51.060;3.720;2023-02-28T08:05:16;4.60;88.50
39493;DHT22;25176;51.060;3.720;2023-02-28T08:08:33;4.40;88.90
39493;DHT22;25176;51.060;3.720;2023-02-28T08:11:55;4.30;89.10
39493;DHT22;25176;51.060;3.720;2023-02-28T08:15:24;4.30;89.60
39493;DHT22;25176;51.060;3.720;2023-02-28T08:21:42;4.40;89.90
39493;DHT22;25176;51.060;3.720;2023-02-28T08:25:06;4.60;88.80
39493;DHT22;25176;51.060;3.720;2023-02-28T08:59:16;4.90;88.40
39493;DHT22;25176;51.060;3.720;2023-02-28T09:01:43;4.80;88.20
39493;DHT22;25176;51.060;3.720;2023-02-28T09:04:09;4.80;88.00
39493;DHT22;25176;51.060;3.720;2023-02-28T09:06:37;4.80;88.30
39493;DHT22;25176;51.060;3.720;2023-02-28T09:09:03;4.90;87.30
39493;DHT22;25176;51.060;3.720;2023-02-28T09:18:43;5.00;86.80
39493;DHT22;25176;51.060;3.720;2023-02-28T09:21:23;4.90;85.10
39493;DHT22;25176;51.060;3.720;2023-02-28T09:24:00;4.90;86.10
39493;DHT22;25176;51.060;3.720;2023-02-28T09:26:27;4.90;84.50
39493;DHT22;25176;51.060;3.720;2023-02-28T09:28:54;5.00;83.70
39493;DHT22;25176;51.060;3.720;2023-02-28T09:31:28;5.10;81.90
39493;DHT22;25176;51.060;3.720;2023-02-28T09:33:56;4.90;82.50
39493;DHT22;25176;51.060;3.720;2023-02-28T09:36:23;5.10;82.90
39493;DHT22;25176;51.060;3.720;2023-02-28T09:38:49;4.90;80.70
39493;DHT22;25176;51.060;3.720;2023-02-28T09:41:23;5.00;81.80
39493;DHT22;25176;51.060;3.720;2023-02-28T09:43:55;4.80;80.60
39493;DHT22;25176;51.060;3.720;2023-02-28T09:48:50;5.10;80.60
39493;DHT22;25176;51.060;3.720;2023-02-28T09:53:48;5.00;78.80
39493;DHT22;25176;51.060;3.720;2023-02-28T09:56:22;4.80;77.80
39493;DHT22;25176;51.060;3.720;2023-02-28T09:59:00;4.90;78.00
39493;DHT22;25176;51.060;3.720;2023-02-28T10:01:40;5.10;78.70
39493;DHT22;25176;51.060;3.720;2023-02-28T10:04:26;5.10;78.20
39493;DHT22;25176;51.060;3.720;2023-02-28T10:06:56;5.30;77.40
39493;DHT22;25176;51.060;3.720;2023-02-28T10:09:48;5.40;76.90
39493;DHT22;25176;51.060;3.720;2023-02-28T10:12:25;5.20;75.80
39493;DHT22;25176;51.060;3.720;2023-02-28T10:14:54;5.00;76.00
39493;DHT22;25176;51.060;3.720;2023-02-28T10:17:38;5.10;76.30
39493;DHT22;25176;51.060;3.720;2023-02-28T10:20:10;5.30;75.30
39493;DHT22;25176;51.060;3.720;2023-02-28T10:22:50;5.10;74.80
39493;DHT22;25176;51.060;3.720;2023-02-28T10:25:29;5.20;74.00
39493;DHT22;25176;51.060;3.720;2023-02-28T10:28:04;5.20;74.10
39493;DHT22;25176;51.060;3.720;2023-02-28T10:30:34;5.40;74.40
39493;DHT22;25176;51.060;3.720;2023-02-28T10:33:00;5.30;72.90
39493;DHT22;25176;51.060;3.720;2023-02-28T10:35:26;5.40;72.60
39493;DHT22;25176;51.060;3.720;2023-02-28T10:37:58;5.60;71.40
39493;DHT22;25176;51.060;3.720;2023-02-28T10:40:33;5.70;71.40
39493;DHT22;25176;51.060;3.720;2023-02-28T10:45:39;5.80;70.70
39493;DHT22;25176;51.060;3.720;2023-02-28T10:50:51;5.90;69.70
39493;DHT22;25176;51.060;3.720;2023-02-28T11:01:40;6.70;68.60
39493;DHT22;25176;51.060;3.720;2023-02-28T11:06:48;7.30;66.80
39493;DHT22;25176;51.060;3.720;2023-02-28T11:09:28;7.30;65.90
39493;DHT22;25176;51.060;3.720;2023-02-28T11:11:56;7.00;65.20
39493;DHT22;25176;51.060;3.720;2023-02-28T11:14:26;6.90;66.40
39493;DHT22;25176;51.060;3.720;2023-02-28T11:16:54;6.50;66.90
39493;DHT22;25176;51.060;3.720;2023-02-28T11:19:33;6.40;67.00
39493;DHT22;25176;51.060;3.720;2023-02-28T11:22:02;6.80;67.40
39493;DHT22;25176;51.060;3.720;2023-02-28T11:24:36;7.10;66.30
39493;DHT22;25176;51.060;3.720;2023-02-28T11:27:03;6.80;66.20
39493;DHT22;25176;51.060;3.720;2023-02-28T11:29:33;6.40;66.80
39493;DHT22;25176;51.060;3.720;2023-02-28T11:32:22;6.40;67.10
39493;DHT22;25176;51.060;3.720;2023-02-28T11:35:14;6.50;67.80
39493;DHT22;25176;51.060;3.720;2023-02-28T11:37:43;6.50;67.60
39493;DHT22;25176;51.060;3.720;2023-02-28T11:40:16;6.50;67.00
39493;DHT22;25176;51.060;3.720;2023-02-28T11:54:14;6.60;67.00
39493;DHT22;25176;51.060;3.720;2023-02-28T11:57:35;6.50;66.00
39493;DHT22;25176;51.060;3.720;2023-02-28T12:06:14;6.30;66.20
39493;DHT22;25176;51.060;3.720;2023-02-28T12:09:08;6.40;66.50
39493;DHT22;25176;51.060;3.720;2023-02-28T12:11:56;6.40;65.80
39493;DHT22;25176;51.060;3.720;2023-02-28T12:28:59;6.50;63.10
39493;DHT22;25176;51.060;3.720;2023-02-28T12:31:30;6.50;63.30
39493;DHT22;25176;51.060;3.720;2023-02-28T12:34:16;6.50;63.50
39493;DHT22;25176;51.060;3.720;2023-02-28T12:36:50;6.30;63.20
39493;DHT22;25176;51.060;3.720;2023-02-28T12:39:23;6.40;62.60
39493;DHT22;25176;51.060;3.720;2023-02-28T12:41:59;6.60;62.90
39493;DHT22;25176;51.060;3.720;2023-02-28T12:44:31;6.50;61.50
39493;DHT22;25176;51.060;3.720;2023-02-28T12:47:04;6.60;61.20
39493;DHT22;25176;51.060;3.720;2023-02-28T12:49:40;6.60;61.00
39493;DHT22;25176;51.060;3.720;2023-02-28T12:52:08;6.50;60.50
39493;DHT22;25176;51.060;3.720;2023-02-28T12:57:23;6.40;58.70
39493;DHT22;25176;51.060;3.720;2023-02-28T13:10:46;6.40;58.20
39493;DHT22;25176;51.060;3.720;2023-02-28T13:13:18;6.30;57.90
39493;DHT22;25176;51.060;3.720;2023-02-28T13:16:04;6.40;57.40
39493;DHT22;25176;51.060;3.720;2023-02-28T13:18:39;6.50;57.90
39493;DHT22;25176;51.060;3.720;2023-02-28T13:21:10;6.40;57.60
39493;DHT22;25176;51.060;3.720;2023-02-28T13:31:25;6.50;57.40
39493;DHT22;25176;51.060;3.720;2023-02-28T13:36:32;6.50;57.00
39493;DHT22;25176;51.060;3.720;2023-02-28T13:39:45;6.50;56.30
39493;DHT22;25176;51.060;3.720;2023-02-28T13:41:49;6.40;55.90
39493;DHT22;25176;51.060;3.720;2023-02-28T13:44:22;6.40;56.40
39493;DHT22;25176;51.060;3.720;2023-02-28T13:55:25;6.50;56.20
39493;DHT22;25176;51.060;3.720;2023-02-28T14:06:23;6.60;56.80
39493;DHT22;25176;51.060;3.720;2023-02-28T14:15:30;6.70;56.50
39493;DHT22;25176;51.060;3.720;2023-02-28T14:18:22;6.40;56.60
39493;DHT22;25176;51.060;3.720;2023-02-28T14:20:54;6.50;56.80
39493;DHT22;25176;51.060;3.720;2023-02-28T14:23:35;6.50;56.80
39493;DHT22;25176;51.060;3.720;2023-02-28T14:29:07;6.40;57.20
39493;DHT22;25176;51.060;3.720;2023-02-28T14:35:50;6.30;57.40
39493;DHT22;25176;51.060;3.720;2023-02-28T14:37:48;6.40;57.30
39493;DHT22;25176;51.060;3.720;2023-02-28T14:44:00;6.10;57.40
39493;DHT22;25176;51.060;3.720;2023-02-28T14:46:32;6.30;57.80
39493;DHT22;25176;51.060;3.720;2023-02-28T14:49:00;6.30;57.50
39493;DHT22;25176;51.060;3.720;2023-02-28T14:51:26;6.40;57.80
39493;DHT22;25176;51.060;3.720;2023-02-28T14:54:03;6.40;57.20
39493;DHT22;25176;51.060;3.720;2023-02-28T14:56:37;6.40;57.10
39493;DHT22;25176;51.060;3.720;2023-02-28T14:59:05;6.20;57.50
39493;DHT22;25176;51.060;3.720;2023-02-28T15:01:31;6.20;57.90
39493;DHT22;25176;51.060;3.720;2023-02-28T15:04:05;6.20;58.00
39493;DHT22;25176;51.060;3.720;2023-02-28T15:06:32;6.30;57.70
39493;DHT22;25176;51.060;3.720;2023-02-28T15:11:35;6.30;57.90
39493;DHT22;25176;51.060;3.720;2023-02-28T15:14:14;6.20;58.00
39493;DHT22;25176;51.060;3.720;2023-02-28T15:16:44;6.20;58.10
39493;DHT22;25176;51.060;3.720;2023-02-28T15:19:39;6.20;58.10
39493;DHT22;25176;51.060;3.720;2023-02-28T15:22:12;6.20;58.30
39493;DHT22;25176;51.060;3.720;2023-02-28T15:24:48;6.20;58.30
39493;DHT22;25176;51.060;3.720;2023-02-28T15:27:27;6.20;58.30
39493;DHT22;25176;51.060;3.720;2023-02-28T15:29:57;6.10;58.30
39493;DHT22;25176;51.060;3.720;2023-02-28T15:32:26;6.10;58.40
39493;DHT22;25176;51.060;3.720;2023-02-28T15:34:52;6.20;58.70
39493;DHT22;25176;51.060;3.720;2023-02-28T15:37:39;6.10;59.00
39493;DHT22;25176;51.060;3.720;2023-02-28T15:40:15;6.30;58.90
39493;DHT22;25176;51.060;3.720;2023-02-28T15:42:42;6.20;58.60
39493;DHT22;25176;51.060;3.720;2023-02-28T15:45:51;6.20;59.00
39493;DHT22;25176;51.060;3.720;2023-02-28T15:48:35;6.20;59.10
39493;DHT22;25176;51.060;3.720;2023-02-28T15:51:07;6.20;59.30
39493;DHT22;25176;51.060;3.720;2023-02-28T15:53:41;6.20;59.50
39493;DHT22;25176;51.060;3.720;2023-02-28T15:56:29;6.30;59.70
39493;DHT22;25176;51.060;3.720;2023-02-28T15:58:57;6.40;59.70
39493;DHT22;25176;51.060;3.720;2023-02-28T16:01:26;6.30;59.70
39493;DHT22;25176;51.060;3.720;2023-02-28T16:03:57;6.30;59.60
39493;DHT22;25176;51.060;3.720;2023-02-28T16:06:37;6.20;59.50
39493;DHT22;25176;51.060;3.720;2023-02-28T16:09:05;6.10;59.60
39493;DHT22;25176;51.060;3.720;2023-02-28T16:11:34;6.10;59.80
39493;DHT22;25176;51.060;3.720;2023-02-28T16:14:02;6.10;59.70
39493;DHT22;25176;51.060;3.720;2023-02-28T16:16:28;6.20;59.80
39493;DHT22;25176;51.060;3.720;2023-02-28T16:18:54;6.10;60.20
39493;DHT22;25176;51.060;3.720;2023-02-28T16:21:20;6.20;60.30
39493;DHT22;25176;51.060;3.720;2023-02-28T16:23:46;6.20;60.40
39493;DHT22;25176;51.060;3.720;2023-02-28T16:26:30;6.30;60.40
39493;DHT22;25176;51.060;3.720;2023-02-28T16:28:55;6.20;60.60
39493;DHT22;25176;51.060;3.720;2023-02-28T16:31:21;6.00;61.10
39493;DHT22;25176;51.060;3.720;2023-02-28T16:33:47;6.00;61.50
39493;DHT22;25176;51.060;3.720;2023-02-28T16:36:19;6.00;61.50
39493;DHT22;25176;51.060;3.720;2023-02-28T16:38:44;5.90;61.50
39493;DHT22;25176;51.060;3.720;2023-02-28T16:41:17;5.90;61.70
39493;DHT22;25176;51.060;3.720;2023-02-28T16:43:46;6.00;61.80
39493;DHT22;25176;51.060;3.720;2023-02-28T16:46:13;6.00;61.00
39493;DHT22;25176;51.060;3.720;2023-02-28T16:48:39;5.90;61.60
39493;DHT22;25176;51.060;3.720;2023-02-28T16:51:11;6.00;61.50
39493;DHT22;25176;51.060;3.720;2023-02-28T16:53:37;6.10;61.60
39493;DHT22;25176;51.060;3.720;2023-02-28T16:56:02;6.10;61.30
39493;DHT22;25176;51.060;3.720;2023-02-28T16:58:28;6.00;61.50
39493;DHT22;25176;51.060;3.720;2023-02-28T17:00:54;5.90;61.90
39493;DHT22;25176;51.060;3.720;2023-02-28T17:03:24;5.90;61.80
39493;DHT22;25176;51.060;3.720;2023-02-28T17:05:50;5.90;61.90
39493;DHT22;25176;51.060;3.720;2023-02-28T17:08:15;6.00;61.80
39493;DHT22;25176;51.060;3.720;2023-02-28T17:10:41;6.00;62.40
39493;DHT22;25176;51.060;3.720;2023-02-28T17:13:07;6.00;62.30
39493;DHT22;25176;51.060;3.720;2023-02-28T17:15:34;5.80;62.40
39493;DHT22;25176;51.060;3.720;2023-02-28T17:18:00;5.80;62.60
39493;DHT22;25176;51.060;3.720;2023-02-28T17:20:26;5.80;62.70
39493;DHT22;25176;51.060;3.720;2023-02-28T17:22:53;5.90;62.90
39493;DHT22;25176;51.060;3.720;2023-02-28T17:25:19;5.90;62.70
39493;DHT22;25176;51.060;3.720;2023-02-28T17:27:45;5.80;62.90
39493;DHT22;25176;51.060;3.720;2023-02-28T17:32:42;5.90;63.10
39493;DHT22;25176;51.060;3.720;2023-02-28T17:35:08;5.90;63.00
39493;DHT22;25176;51.060;3.720;2023-02-28T17:37:34;5.90;63.10
39493;DHT22;25176;51.060;3.720;2023-02-28T17:39:59;5.90;63.10
39493;DHT22;25176;51.060;3.720;2023-02-28T17:42:25;5.80;63.40
39493;DHT22;25176;51.060;3.720;2023-02-28T17:44:50;5.70;63.60
39493;DHT22;25176;51.060;3.720;2023-02-28T17:47:16;5.70;63.70
39493;DHT22;25176;51.060;3.720;2023-02-28T17:49:42;5.80;64.10
39493;DHT22;25176;51.060;3.720;2023-02-28T17:52:08;5.80;63.90
39493;DHT22;25176;51.060;3.720;2023-02-28T17:54:33;5.80;64.30
39493;DHT22;25176;51.060;3.720;2023-02-28T17:56:59;5.80;64.20
39493;DHT22;25176;51.060;3.720;2023-02-28T17:59:25;5.80;64.10
39493;DHT22;25176;51.060;3.720;2023-02-28T18:01:50;5.70;64.40
39493;DHT22;25176;51.060;3.720;2023-02-28T18:04:16;5.70;64.70
39493;DHT22;25176;51.060;3.720;2023-02-28T18:06:43;5.70;64.80
39493;DHT22;25176;51.060;3.720;2023-02-28T18:09:18;5.70;65.00
39493;DHT22;25176;51.060;3.720;2023-02-28T18:11:47;5.60;65.00
39493;DHT22;25176;51.060;3.720;2023-02-28T18:14:16;5.60;65.40
39493;DHT22;25176;51.060;3.720;2023-02-28T18:16:42;5.60;65.70
39493;DHT22;25176;51.060;3.720;2023-02-28T18:19:08;5.60;65.60
39493;DHT22;25176;51.060;3.720;2023-02-28T18:21:40;5.60;65.70
39493;DHT22;25176;51.060;3.720;2023-02-28T18:24:06;5.60;66.00
39493;DHT22;25176;51.060;3.720;2023-02-28T18:26:31;5.40;66.20
39493;DHT22;25176;51.060;3.720;2023-02-28T18:28:57;5.40;66.50
39493;DHT22;25176;51.060;3.720;2023-02-28T18:31:22;5.40;66.50
39493;DHT22;25176;51.060;3.720;2023-02-28T18:33:49;5.30;66.50
39493;DHT22;25176;51.060;3.720;2023-02-28T18:36:17;5.40;66.50
39493;DHT22;25176;51.060;3.720;2023-02-28T18:38:43;5.30;66.40
39493;DHT22;25176;51.060;3.720;2023-02-28T18:41:08;5.40;66.30
39493;DHT22;25176;51.060;3.720;2023-02-28T18:43:36;5.30;66.10
39493;DHT22;25176;51.060;3.720;2023-02-28T18:46:06;5.20;66.60
39493;DHT22;25176;51.060;3.720;2023-02-28T18:48:32;5.10;66.80
39493;DHT22;25176;51.060;3.720;2023-02-28T18:50:57;5.10;66.90
39493;DHT22;25176;51.060;3.720;2023-02-28T18:53:23;5.10;66.80
39493;DHT22;25176;51.060;3.720;2023-02-28T18:55:48;5.20;66.80
39493;DHT22;25176;51.060;3.720;2023-02-28T18:58:14;5.20;66.80
39493;DHT22;25176;51.060;3.720;2023-02-28T19:00:40;5.20;66.80
39493;DHT22;25176;51.060;3.720;2023-02-28T19:03:05;5.30;67.30
39493;DHT22;25176;51.060;3.720;2023-02-28T19:05:31;5.20;66.90
39493;DHT22;25176;51.060;3.720;2023-02-28T19:08:00;5.10;66.80
39493;DHT22;25176;51.060;3.720;2023-02-28T19:10:26;5.10;67.10
39493;DHT22;25176;51.060;3.720;2023-02-28T19:12:52;5.10;67.20
39493;DHT22;25176;51.060;3.720;2023-02-28T19:15:17;5.10;67.60
39493;DHT22;25176;51.060;3.720;2023-02-28T19:17:43;5.10;67.20
39493;DHT22;25176;51.060;3.720;2023-02-28T19:20:10;5.00;67.30
39493;DHT22;25176;51.060;3.720;2023-02-28T19:22:36;5.00;67.60
39493;DHT22;25176;51.060;3.720;2023-02-28T19:25:06;5.00;67.50
39493;DHT22;25176;51.060;3.720;2023-02-28T19:27:31;4.90;67.70
39493;DHT22;25176;51.060;3.720;2023-02-28T19:29:57;4.90;67.80
39493;DHT22;25176;51.060;3.720;2023-02-28T19:32:24;4.80;67.80
39493;DHT22;25176;51.060;3.720;2023-02-28T19:34:50;4.80;67.90
39493;DHT22;25176;51.060;3.720;2023-02-28T19:37:15;4.80;68.10
39493;DHT22;25176;51.060;3.720;2023-02-28T19:39:44;4.80;67.90
39493;DHT22;25176;51.060;3.720;2023-02-28T19:42:13;4.80;68.10
39493;DHT22;25176;51.060;3.720;2023-02-28T19:44:39;4.80;68.00
39493;DHT22;25176;51.060;3.720;2023-02-28T19:47:04;4.80;68.00
39493;DHT22;25176;51.060;3.720;2023-02-28T19:49:30;4.80;67.90
39493;DHT22;25176;51.060;3.720;2023-02-28T19:51:56;4.90;67.90
39493;DHT22;25176;51.060;3.720;2023-02-28T19:54:23;4.80;68.00
39493;DHT22;25176;51.060;3.720;2023-02-28T19:56:48;4.80;69.10
39493;DHT22;25176;51.060;3.720;2023-02-28T19:59:14;4.80;68.00
39493;DHT22;25176;51.060;3.720;2023-02-28T20:01:40;4.80;68.20
39493;DHT22;25176;51.060;3.720;2023-02-28T20:04:05;4.90;68.20
39493;DHT22;25176;51.060;3.720;2023-02-28T20:06:32;4.90;68.20
39493;DHT22;25176;51.060;3.720;2023-02-28T20:08:58;4.90;67.90
39493;DHT22;25176;51.060;3.720;2023-02-28T20:11:24;4.90;68.20
39493;DHT22;25176;51.060;3.720;2023-02-28T20:13:52;4.90;68.20
39493;DHT22;25176;51.060;3.720;2023-02-28T20:16:18;4.80;68.20
39493;DHT22;25176;51.060;3.720;2023-02-28T20:18:48;4.70;68.80
39493;DHT22;25176;51.060;3.720;2023-02-28T20:21:15;4.70;68.90
39493;DHT22;25176;51.060;3.720;2023-02-28T20:23:41;4.70;68.80
39493;DHT22;25176;51.060;3.720;2023-02-28T20:26:08;4.70;69.00
39493;DHT22;25176;51.060;3.720;2023-02-28T20:28:34;4.80;69.10
39493;DHT22;25176;51.060;3.720;2023-02-28T20:31:00;4.80;68.70
39493;DHT22;25176;51.060;3.720;2023-02-28T20:33:26;4.80;68.80
39493;DHT22;25176;51.060;3.720;2023-02-28T20:35:59;4.70;68.70
39493;DHT22;25176;51.060;3.720;2023-02-28T20:38:25;4.70;68.80
39493;DHT22;25176;51.060;3.720;2023-02-28T20:40:54;4.60;69.00
39493;DHT22;25176;51.060;3.720;2023-02-28T20:43:20;4.50;69.10